Time;durP1;ratioP1;P1;durP2;ratioP2;P2;SDS_P1;SDS_P2;PMS_P1;PMS_P2;Temp;Humidity;BMP_temperature;BMP_pressure;BME280_temperature;BME280_humidity;BME280_pressure;Samples;Min_cycle;Max_cycle;Signal;HPM_P1;HPM_P2
2021/01/07 00:02:12;;;;;;;1999.90;999.90;;;;;;;4.79;100.00;101382.60;1796576;79;21511;-67
2021/01/07 00:04:40;;;;;;;1999.90;999.90;;;;;;;4.79;100.00;101384.80;1787433;78;21494;-67
2021/01/07 00:07:07;;;;;;;1999.90;999.90;;;;;;;4.82;100.00;101384.30;1791740;79;21375;-67
2021/01/07 00:09:35;;;;;;;1999.90;999.90;;;;;;;4.83;100.00;101379.65;1766436;80;21220;-67
2021/01/07 00:12:04;;;;;;;1999.90;999.90;;;;;;;4.84;100.00;101380.77;1785263;79;21114;-67
2021/01/07 00:14:32;;;;;;;1999.90;999.90;;;;;;;4.86;100.00;101387.38;1741464;81;21083;-73
2021/01/07 00:16:59;;;;;;;1999.90;999.90;;;;;;;4.85;100.00;101384.34;1779734;79;21089;-69
2021/01/07 00:19:27;;;;;;;1999.90;999.90;;;;;;;4.85;100.00;101382.97;1797844;79;22280;-66
2021/01/07 00:21:55;;;;;;;1999.90;999.90;;;;;;;4.84;100.00;101383.52;1800097;79;20966;-67
2021/01/07 00:24:23;;;;;;;1999.90;999.90;;;;;;;4.84;100.00;101379.40;1792131;79;21072;-67
2021/01/07 00:26:51;;;;;;;1999.90;999.90;;;;;;;4.83;100.00;101375.53;1791856;79;21626;-68
2021/01/07 00:29:19;;;;;;;1999.90;999.90;;;;;;;4.81;100.00;101378.53;1799596;78;21518;-67
2021/01/07 00:31:47;;;;;;;1999.90;999.90;;;;;;;4.80;100.00;101376.87;1795979;79;21447;-76
2021/01/07 00:34:14;;;;;;;1999.90;999.90;;;;;;;4.80;100.00;101380.98;1798020;79;21135;-67
2021/01/07 00:36:42;;;;;;;1999.90;999.90;;;;;;;4.78;100.00;101375.45;1790914;79;20973;-77
2021/01/07 00:39:10;;;;;;;1999.90;999.90;;;;;;;4.78;100.00;101383.68;1789718;79;21108;-69
2021/01/07 00:41:38;;;;;;;1999.90;999.90;;;;;;;4.76;100.00;101382.56;1798229;79;21112;-82
2021/01/07 00:44:06;;;;;;;1999.90;999.90;;;;;;;4.76;100.00;101378.98;1798906;79;22267;-79
2021/01/07 00:46:34;;;;;;;1999.90;999.90;;;;;;;4.75;100.00;101377.33;1796858;79;21120;-77
2021/01/07 00:49:02;;;;;;;1999.90;999.90;;;;;;;4.76;100.00;101374.34;1797508;79;21080;-77
2021/01/07 00:51:33;;;;;;;1999.90;999.90;;;;;;;4.77;100.00;101369.14;1767759;79;21107;-79
2021/01/07 00:54:01;;;;;;;1999.90;999.90;;;;;;;4.76;100.00;101370.22;1803776;78;21511;-67
2021/01/07 00:56:35;;;;;;;1999.90;999.90;;;;;;;4.76;100.00;101377.62;1796037;79;21368;-66
2021/01/07 00:59:05;;;;;;;1999.90;999.90;;;;;;;4.75;100.00;101367.73;1769575;79;21123;-76
2021/01/07 01:01:44;;;;;;;1999.90;999.90;;;;;;;4.74;100.00;101366.06;1795623;79;20977;-76
2021/01/07 01:04:12;;;;;;;1999.90;999.90;;;;;;;4.73;100.00;101361.12;1801603;79;21511;-67
2021/01/07 01:06:40;;;;;;;1999.90;999.90;;;;;;;4.74;100.00;101361.95;1791002;79;21537;-75
2021/01/07 01:09:09;;;;;;;1999.90;999.90;;;;;;;4.75;100.00;101360.33;1801163;79;22270;-75
2021/01/07 01:11:46;;;;;;;1999.90;999.90;;;;;;;4.72;100.00;101358.63;1807250;78;21201;-75
2021/01/07 01:14:17;;;;;;;1999.90;999.90;;;;;;;4.68;100.00;101353.36;1799267;79;21572;-73
2021/01/07 01:16:49;;;;;;;1999.90;999.90;;;;;;;4.66;100.00;101350.03;1805660;79;21057;-67
2021/01/07 01:19:19;;;;;;;1999.90;999.90;;;;;;;4.67;100.00;101351.70;1798368;79;21072;-75
2021/01/07 01:21:52;;;;;;;1999.90;999.90;;;;;;;4.66;100.00;101344.02;1800480;79;21219;-66
2021/01/07 01:24:20;;;;;;;1999.90;999.90;;;;;;;4.64;100.00;101351.66;1799385;78;21407;-78
2021/01/07 01:26:55;;;;;;;1999.90;999.90;;;;;;;4.59;100.00;101351.58;1798892;78;21096;-66
2021/01/07 01:29:23;;;;;;;1999.90;999.90;;;;;;;4.58;100.00;101344.97;1793053;78;21361;-79
2021/01/07 01:31:51;;;;;;;1999.90;999.90;;;;;;;4.58;100.00;101344.43;1799815;78;21084;-67
2021/01/07 01:34:20;;;;;;;1999.90;999.90;;;;;;;4.59;100.00;101346.09;1797851;79;22197;-66
2021/01/07 01:36:50;;;;;;;1999.90;999.90;;;;;;;4.61;100.00;101345.30;1794961;79;21104;-78
2021/01/07 01:39:18;;;;;;;1999.90;999.90;;;;;;;4.63;100.00;101343.68;1799863;79;20953;-66
2021/01/07 01:41:47;;;;;;;1999.90;999.90;;;;;;;4.66;100.00;101348.13;1800365;79;21076;-66
2021/01/07 01:44:16;;;;;;;1999.90;999.90;;;;;;;4.66;100.00;101340.44;1801223;79;21068;-66
2021/01/07 01:46:44;;;;;;;1999.90;999.90;;;;;;;4.65;100.00;101349.20;1797752;79;22258;-80
2021/01/07 01:49:12;;;;;;;1999.90;999.90;;;;;;;4.62;100.00;101355.73;1797207;79;20970;-74
2021/01/07 01:51:41;;;;;;;1999.90;999.90;;;;;;;4.61;100.00;101361.75;1797035;79;21116;-80
2021/01/07 01:54:09;;;;;;;1999.90;999.90;;;;;;;4.60;100.00;101368.85;1798126;79;21408;-80
2021/01/07 01:56:37;;;;;;;1999.90;999.90;;;;;;;4.57;100.00;101370.19;1794446;79;21100;-78
2021/01/07 01:59:05;;;;;;;1999.90;999.90;;;;;;;4.57;100.00;101359.22;1800681;79;21432;-77
2021/01/07 02:01:33;;;;;;;1999.90;999.90;;;;;;;4.52;100.00;101361.88;1798037;79;21088;-78
2021/01/07 02:04:01;;;;;;;1999.90;999.90;;;;;;;4.49;100.00;101358.27;1798616;79;20944;-79
2021/01/07 02:06:29;;;;;;;1999.90;999.90;;;;;;;4.49;100.00;101359.63;1795982;79;21534;-78
2021/01/07 02:08:57;;;;;;;1999.90;999.90;;;;;;;4.48;100.00;101347.01;1755864;79;21115;-67
2021/01/07 02:11:24;;;;;;;1999.90;999.90;;;;;;;4.48;100.00;101340.16;1805385;79;21282;-77
2021/01/07 02:13:52;;;;;;;1999.90;999.90;;;;;;;4.48;100.00;101343.73;1803695;79;21075;-77
2021/01/07 02:16:24;;;;;;;1999.90;999.90;;;;;;;4.47;100.00;101344.80;1805306;78;21103;-77
2021/01/07 02:18:52;;;;;;;1999.90;999.90;;;;;;;4.47;100.00;101337.12;1802719;78;21407;-66
2021/01/07 02:21:20;;;;;;;1999.90;999.90;;;;;;;4.46;100.00;101343.14;1794671;79;21096;-78
2021/01/07 02:23:54;;;;;;;1999.90;999.90;;;;;;;4.44;100.00;101347.21;1795111;79;21368;-78
2021/01/07 02:26:22;;;;;;;1999.90;999.90;;;;;;;4.40;100.00;101344.67;1792407;79;21088;-67
2021/01/07 02:28:50;;;;;;;1999.90;999.90;;;;;;;4.36;100.00;101347.62;1800561;77;21104;-66
2021/01/07 02:31:18;;;;;;;1999.90;999.90;;;;;;;4.34;100.00;101349.78;1802103;79;21135;-79
2021/01/07 02:33:46;;;;;;;1999.90;999.90;;;;;;;4.33;100.00;101348.95;1802835;79;21075;-80
2021/01/07 02:36:14;;;;;;;1999.90;999.90;;;;;;;4.34;100.00;101348.41;1806175;78;21371;-66
2021/01/07 02:38:42;;;;;;;1999.90;999.90;;;;;;;4.32;100.00;101348.66;1805210;78;21096;-80
2021/01/07 02:41:10;;;;;;;1999.90;999.90;;;;;;;4.31;100.00;101354.39;1811618;78;20964;-72
2021/01/07 02:43:39;;;;;;;1999.90;999.90;;;;;;;4.28;100.00;101342.02;1808483;79;21265;-69
2021/01/07 02:46:07;;;;;;;1999.90;999.90;;;;;;;4.28;100.00;101346.66;1811199;79;21151;-82
2021/01/07 02:48:36;;;;;;;1999.90;999.90;;;;;;;4.26;100.00;101355.67;1803864;79;21684;-84
2021/01/07 02:51:04;;;;;;;1999.90;999.90;;;;;;;4.21;100.00;101352.30;1812294;78;21087;-68
2021/01/07 02:53:33;;;;;;;1999.90;999.90;;;;;;;4.17;100.00;101352.50;1801711;79;20937;-67
2021/01/07 02:56:01;;;;;;;1999.90;999.90;;;;;;;4.12;100.00;101353.78;1800593;79;21083;-67
2021/01/07 02:58:32;;;;;;;1999.90;999.90;;;;;;;4.10;100.00;101358.13;1810781;79;21109;-67
2021/01/07 03:01:00;;;;;;;1999.90;999.90;;;;;;;4.10;100.00;101355.94;1810677;78;21205;-82
2021/01/07 03:03:28;;;;;;;1999.90;999.90;;;;;;;4.08;100.00;101356.72;1801877;79;20989;-67
2021/01/07 03:05:57;;;;;;;1999.90;999.90;;;;;;;4.04;100.00;101361.86;1807238;79;21143;-79
2021/01/07 03:08:25;;;;;;;1999.90;999.90;;;;;;;4.07;100.00;101355.06;1795351;78;21092;-67
2021/01/07 03:10:53;;;;;;;1999.90;999.90;;;;;;;4.10;100.00;101351.83;1798030;77;21072;-79
2021/01/07 03:13:21;;;;;;;1999.90;999.90;;;;;;;4.10;100.00;101356.77;1811678;77;21187;-80
2021/01/07 03:15:50;;;;;;;1999.90;999.90;;;;;;;4.11;100.00;101365.81;1813843;79;21100;-67
2021/01/07 03:18:17;;;;;;;1999.90;999.90;;;;;;;4.12;100.00;101358.72;1786448;79;21149;-78
2021/01/07 03:20:46;;;;;;;1999.90;999.90;;;;;;;4.10;100.00;101362.25;1801075;78;21087;-66
2021/01/07 03:23:14;;;;;;;1999.90;999.90;;;;;;;4.02;100.00;101361.81;1803408;79;21087;-85
2021/01/07 03:25:42;;;;;;;1999.90;999.90;;;;;;;3.93;100.00;101368.77;1802004;78;21205;-67
2021/01/07 03:28:10;;;;;;;1999.90;999.90;;;;;;;3.82;100.00;101369.10;1800199;79;21123;-75
2021/01/07 03:30:38;;;;;;;1999.90;999.90;;;;;;;3.67;100.00;101367.43;1808572;77;21223;-75
2021/01/07 03:33:05;;;;;;;1999.90;999.90;;;;;;;3.53;100.00;101367.70;1789370;79;21380;-75
2021/01/07 03:35:33;;;;;;;1999.90;999.90;;;;;;;3.41;100.00;101364.17;1802632;79;21088;-67
2021/01/07 03:38:01;;;;;;;1999.90;999.90;;;;;;;3.33;100.00;101366.45;1796543;79;22120;-76
2021/01/07 03:40:29;;;;;;;1999.90;999.90;;;;;;;3.25;100.00;101367.66;1807495;79;21135;-75
2021/01/07 03:42:57;;;;;;;1999.90;999.90;;;;;;;3.21;100.00;101374.67;1803812;79;21609;-68
2021/01/07 03:45:25;;;;;;;1999.90;999.90;;;;;;;3.17;100.00;101361.18;1806717;79;21543;-67
2021/01/07 03:47:54;;;;;;;1999.90;999.90;;;;;;;3.14;100.00;101358.92;1805580;79;21100;-67
2021/01/07 03:50:22;;;;;;;1999.90;999.90;;;;;;;3.11;100.00;101364.34;1763222;79;21386;-67
2021/01/07 03:52:50;;;;;;;1999.90;999.90;;;;;;;3.10;100.00;101355.84;1792310;79;21099;-67
2021/01/07 03:55:18;;;;;;;1999.90;999.90;;;;;;;3.09;100.00;101363.75;1785363;79;21104;-76
2021/01/07 03:57:45;;;;;;;1999.90;999.90;;;;;;;3.07;100.00;101356.86;1804069;79;21704;-77
2021/01/07 04:00:14;;;;;;;1999.90;999.90;;;;;;;3.04;100.00;101359.53;1807902;79;21478;-67
2021/01/07 04:02:42;;;;;;;1999.90;999.90;;;;;;;3.03;100.00;101369.34;1802391;78;22081;-76
2021/01/07 04:05:10;;;;;;;1999.90;999.90;;;;;;;3.00;100.00;101369.82;1803813;79;21103;-67
2021/01/07 04:07:38;;;;;;;1999.90;999.90;;;;;;;2.97;100.00;101363.46;1798189;79;21143;-67
2021/01/07 04:10:07;;;;;;;1999.90;999.90;;;;;;;2.95;100.00;101368.34;1784917;79;20996;-67
2021/01/07 04:12:36;;;;;;;1999.90;999.90;;;;;;;2.92;100.00;101364.17;1794230;79;21076;-67
2021/01/07 04:15:05;;;;;;;1999.90;999.90;;;;;;;2.88;100.00;101367.92;1788676;79;21364;-76
2021/01/07 04:17:33;;;;;;;1999.90;999.90;;;;;;;2.86;100.00;101368.70;1803898;79;21159;-67
2021/01/07 04:20:01;;;;;;;1999.90;999.90;;;;;;;2.85;100.00;101362.09;1801866;79;21104;-72
2021/01/07 04:22:30;;;;;;;1999.90;999.90;;;;;;;2.85;100.00;101363.47;1791971;79;21076;-70
2021/01/07 04:24:57;;;;;;;1999.90;999.90;;;;;;;2.85;100.00;101360.73;1801992;79;21138;-71
2021/01/07 04:27:25;;;;;;;1999.90;999.90;;;;;;;2.83;100.00;101359.60;1798625;79;22085;-70
2021/01/07 04:29:53;;;;;;;1999.90;999.90;;;;;;;2.82;100.00;101359.30;1793316;79;21080;-70
2021/01/07 04:32:21;;;;;;;1999.90;999.90;;;;;;;2.82;100.00;101363.41;1812349;79;21582;-70
2021/01/07 04:34:49;;;;;;;1999.90;999.90;;;;;;;2.82;100.00;101371.61;1799263;79;21122;-70
2021/01/07 04:37:16;;;;;;;1999.90;999.90;;;;;;;2.83;100.00;101373.27;1811039;78;21127;-69
2021/01/07 04:39:44;;;;;;;1999.90;999.90;;;;;;;2.83;100.00;101368.34;1813222;79;21331;-69
2021/01/07 04:42:13;;;;;;;1999.90;999.90;;;;;;;2.81;100.00;101363.64;1808974;78;21111;-70
2021/01/07 04:44:41;;;;;;;1999.90;999.90;;;;;;;2.82;100.00;101368.87;1770307;79;21570;-70
2021/01/07 04:47:09;;;;;;;1999.90;999.90;;;;;;;2.81;100.00;101366.38;1811578;79;21518;-70
2021/01/07 04:49:38;;;;;;;1999.90;999.90;;;;;;;2.82;100.00;101377.08;1773037;79;21096;-70
2021/01/07 04:52:06;;;;;;;1999.90;999.90;;;;;;;2.82;100.00;101370.77;1806143;79;22581;-69
2021/01/07 04:54:35;;;;;;;1999.90;999.90;;;;;;;2.83;100.00;101373.27;1799065;79;21088;-69
2021/01/07 04:57:03;;;;;;;1999.90;999.90;;;;;;;2.84;100.00;101364.00;1808000;78;20953;-69
2021/01/07 04:59:30;;;;;;;1999.90;999.90;;;;;;;2.87;100.00;101362.69;1796464;79;20925;-69
2021/01/07 05:01:58;;;;;;;1999.90;999.90;;;;;;;2.93;100.00;101362.27;1797796;79;21138;-70
2021/01/07 05:04:26;;;;;;;1999.90;999.90;;;;;;;2.98;100.00;101361.02;1803757;79;22477;-69
2021/01/07 05:06:54;;;;;;;1999.90;999.90;;;;;;;3.03;100.00;101361.14;1798561;78;20957;-70
2021/01/07 05:09:22;;;;;;;1999.90;999.90;;;;;;;3.09;100.00;101359.64;1794472;79;21562;-69
2021/01/07 05:11:50;;;;;;;1999.90;999.90;;;;;;;3.12;100.00;101364.64;1804175;78;21543;-69
2021/01/07 05:14:18;;;;;;;1999.90;999.90;;;;;;;3.16;100.00;101362.25;1801712;79;21103;-70
2021/01/07 05:16:46;;;;;;;1999.90;999.90;;;;;;;3.16;100.00;101363.63;1774205;80;22211;-69
2021/01/07 05:19:14;;;;;;;1999.90;999.90;;;;;;;3.15;100.00;101370.99;1798590;79;21028;-69
2021/01/07 05:21:41;;;;;;;1999.90;999.90;;;;;;;3.15;100.00;101368.27;1804648;78;21119;-70
2021/01/07 05:24:10;;;;;;;1999.90;999.90;;;;;;;3.15;100.00;101383.30;1809056;79;21135;-69
2021/01/07 05:26:37;;;;;;;1999.90;999.90;;;;;;;3.13;100.00;101376.41;1807269;78;21664;-69
2021/01/07 05:29:05;;;;;;;1999.90;999.90;;;;;;;3.11;100.00;101374.45;1801388;79;21393;-70
2021/01/07 05:31:33;;;;;;;1999.90;999.90;;;;;;;3.09;100.00;101374.69;1761103;80;21111;-70
2021/01/07 05:34:01;;;;;;;1999.90;999.90;;;;;;;3.05;100.00;101370.77;1813825;78;21071;-70
2021/01/07 05:36:30;;;;;;;1999.90;999.90;;;;;;;3.02;100.00;101375.88;1814845;78;21506;-69
2021/01/07 05:39:04;;;;;;;1999.90;999.90;;;;;;;2.98;100.00;101376.06;1812981;78;21641;-70
2021/01/07 05:41:35;;;;;;;1999.90;999.90;;;;;;;2.95;100.00;101369.70;1818169;78;21387;-69
2021/01/07 05:44:10;;;;;;;1999.90;999.90;;;;;;;2.92;100.00;101372.37;1809696;78;21090;-70
2021/01/07 05:46:38;;;;;;;1999.90;999.90;;;;;;;2.87;100.00;101373.09;1815997;78;21131;-70
2021/01/07 05:49:06;;;;;;;1999.90;999.90;;;;;;;2.86;100.00;101367.33;1806124;78;21111;-69
2021/01/07 05:51:34;;;;;;;1999.90;999.90;;;;;;;2.84;100.00;101362.63;1811692;78;21111;-71
2021/01/07 05:54:02;;;;;;;1999.90;999.90;;;;;;;2.82;100.00;101355.73;1767107;78;22541;-70
2021/01/07 05:56:30;;;;;;;1999.90;999.90;;;;;;;2.81;100.00;101349.97;1802198;78;21092;-71
2021/01/07 05:58:58;;;;;;;1999.90;999.90;;;;;;;2.78;100.00;101352.65;1774532;78;21100;-69
2021/01/07 06:01:26;;;;;;;1999.90;999.90;;;;;;;2.77;100.00;101348.25;1755019;77;21503;-70
2021/01/07 06:03:54;;;;;;;1999.90;999.90;;;;;;;2.76;100.00;101351.22;1775779;78;21087;-69
2021/01/07 06:06:23;;;;;;;1999.90;999.90;;;;;;;2.77;100.00;101344.16;1805301;78;21330;-70
2021/01/07 06:08:53;;;;;;;1999.90;999.90;;;;;;;2.81;100.00;101341.77;1802496;78;21000;-70
2021/01/07 06:11:24;;;;;;;1999.90;999.90;;;;;;;2.84;100.00;101346.23;1808336;78;21083;-70
2021/01/07 06:13:53;;;;;;;1999.90;999.90;;;;;;;2.89;100.00;101349.08;1801626;78;21083;-69
2021/01/07 06:16:22;;;;;;;1999.90;999.90;;;;;;;2.94;100.00;101356.56;1801783;78;21503;-69
2021/01/07 06:18:50;;;;;;;1999.90;999.90;;;;;;;2.96;100.00;101355.80;1806888;78;21322;-70
2021/01/07 06:21:17;;;;;;;1999.90;999.90;;;;;;;2.96;100.00;101350.86;1794169;78;21527;-69
2021/01/07 06:23:46;;;;;;;1999.90;999.90;;;;;;;2.94;100.00;101355.73;1798630;78;20976;-70
2021/01/07 06:26:24;;;;;;;1999.90;999.90;;;;;;;2.94;100.00;101349.73;1817215;77;21111;-69
2021/01/07 06:28:59;;;;;;;1999.90;999.90;;;;;;;2.95;100.00;101340.99;1813268;78;21079;-69
2021/01/07 06:31:39;;;;;;;1999.90;999.90;;;;;;;2.98;100.00;101324.11;1797695;78;22157;-70
2021/01/07 06:34:07;;;;;;;1999.90;999.90;;;;;;;2.95;100.00;101318.58;1800980;79;21099;-69
2021/01/07 06:36:44;;;;;;;1999.90;999.90;;;;;;;2.96;100.00;101309.84;1803722;78;21111;-70
2021/01/07 06:39:12;;;;;;;1999.90;999.90;;;;;;;2.98;100.00;101307.16;1803436;79;21503;-69
2021/01/07 06:41:40;;;;;;;1999.90;999.90;;;;;;;3.01;100.00;101312.16;1800839;79;21550;-69
2021/01/07 06:44:08;;;;;;;1999.90;999.90;;;;;;;3.04;100.00;101326.72;1773606;79;21432;-72
2021/01/07 06:46:40;;;;;;;1999.90;999.90;;;;;;;3.04;100.00;101332.19;1765551;79;21133;-66
2021/01/07 06:49:28;;;;;;;1999.90;999.90;;;;;;;3.09;100.00;101326.83;1790311;79;20962;-68
2021/01/07 06:52:01;;;;;;;1999.90;999.90;;;;;;;3.10;100.00;101320.28;1749609;81;21090;-68
2021/01/07 06:54:36;;;;;;;1999.90;999.90;;;;;;;3.08;100.00;101306.55;1763982;80;21970;-65
2021/01/07 06:57:12;;;;;;;1999.90;999.90;;;;;;;3.06;100.00;101301.33;1792548;79;21921;-66
2021/01/07 07:00:00;;;;;;;1999.90;999.90;;;;;;;3.04;100.00;101292.53;1731539;81;21149;-64
2021/01/07 07:02:28;;;;;;;1999.90;999.90;;;;;;;3.02;100.00;101290.58;1801848;79;21095;-65
2021/01/07 07:05:06;;;;;;;1999.90;999.90;;;;;;;3.00;100.00;101294.63;1755654;80;21151;-65
2021/01/07 07:07:59;;;;;;;1999.90;999.90;;;;;;;2.99;100.00;101309.36;1795042;79;21119;-68
2021/01/07 07:10:41;;;;;;;1999.90;999.90;;;;;;;3.00;100.00;101308.30;1783994;79;21374;-69
2021/01/07 07:13:20;;;;;;;1999.90;999.90;;;;;;;3.01;100.00;101309.95;1753876;80;21169;-68
2021/01/07 07:15:49;;;;;;;1999.90;999.90;;;;;;;3.00;100.00;101305.02;1795502;78;21127;-69
2021/01/07 07:18:34;;;;;;;1999.90;999.90;;;;;;;3.00;100.00;101297.36;1779521;80;21101;-66
2021/01/07 07:21:24;;;;;;;1999.90;999.90;;;;;;;3.00;100.00;101295.45;1797244;79;21671;-64
2021/01/07 07:23:53;;;;;;;1999.90;999.90;;;;;;;3.01;100.00;101296.28;1741477;81;21380;-64
2021/01/07 07:26:40;;;;;;;1999.90;999.90;;;;;;;3.02;100.00;101289.74;1748932;80;21107;-65
2021/01/07 07:29:13;;;;;;;1999.90;999.90;;;;;;;3.00;100.00;101296.81;1797426;78;21214;-67
2021/01/07 07:31:46;;;;;;;1999.90;999.90;;;;;;;3.02;100.00;101299.31;1764100;79;21524;-65
2021/01/07 07:34:16;;;;;;;1999.90;999.90;;;;;;;3.01;100.00;101297.11;1810776;78;21079;-66
2021/01/07 07:36:44;;;;;;;1999.90;999.90;;;;;;;3.04;100.00;101296.63;1813783;78;21350;-69
2021/01/07 07:39:13;;;;;;;1999.90;999.90;;;;;;;3.05;100.00;101292.83;1809132;78;21095;-69
2021/01/07 07:41:43;;;;;;;1999.90;999.90;;;;;;;3.06;100.00;101288.19;1799498;78;21096;-67
2021/01/07 07:44:13;;;;;;;1999.90;999.90;;;;;;;3.08;100.00;101286.05;1800113;78;21096;-63
2021/01/07 07:46:41;;;;;;;1999.90;999.90;;;;;;;3.08;100.00;101286.05;1803707;77;21087;-64
2021/01/07 07:49:12;;;;;;;1999.90;999.90;;;;;;;3.10;100.00;101290.73;1778247;78;21213;-65
2021/01/07 07:51:40;;;;;;;1999.90;999.90;;;;;;;3.12;100.00;101274.37;1818303;77;21095;-66
2021/01/07 07:54:11;;;;;;;1999.90;999.90;;;;;;;3.17;100.00;101273.66;1799118;78;21123;-65
2021/01/07 07:56:39;;;;;;;1999.90;999.90;;;;;;;3.20;100.00;101274.00;1806829;78;20918;-68
2021/01/07 07:59:10;;;;;;;1999.90;999.90;;;;;;;3.24;100.00;101271.08;1806084;78;21083;-67
2021/01/07 08:01:45;;;;;;;1999.90;999.90;;;;;;;3.29;100.00;101264.88;1813924;78;22233;-73
2021/01/07 08:04:16;;;;;;;1999.90;999.90;;;;;;;3.35;100.00;101265.27;1805274;78;21562;-66
2021/01/07 08:06:45;;;;;;;1999.90;999.90;;;;;;;3.41;100.00;101262.09;1810317;78;21087;-63
2021/01/07 08:09:15;;;;;;;1999.90;999.90;;;;;;;3.43;100.00;101250.37;1812532;78;20984;-67
2021/01/07 08:11:52;;;;;;;1999.90;999.90;;;;;;;3.45;100.00;101256.42;1810675;78;21111;-69
2021/01/07 08:14:26;;;;;;;1999.90;999.90;;;;;;;3.44;100.00;101251.48;1800142;78;21373;-64
2021/01/07 08:17:18;;;;;;;1999.90;999.90;;;;;;;3.43;100.00;101253.10;1800199;78;21087;-71
2021/01/07 08:19:47;;;;;;;1999.90;999.90;;;;;;;3.41;100.00;101246.50;1712751;82;20972;-71
2021/01/07 08:22:14;;;;;;;1999.90;999.90;;;;;;;3.41;100.00;101239.66;1707726;82;21102;-63
2021/01/07 08:24:42;;;;;;;1999.90;999.90;;;;;;;3.42;100.00;101237.77;1708436;81;21118;-65
2021/01/07 08:27:16;;;;;;;1999.90;999.90;;;;;;;3.42;100.00;101236.39;1711901;82;21378;-67
2021/01/07 08:29:46;;;;;;;1999.90;999.90;;;;;;;3.43;100.00;101232.58;1709122;82;28133;-64
2021/01/07 08:32:18;;;;;;;1999.90;999.90;;;;;;;3.43;100.00;101229.30;1714586;82;21027;-64
2021/01/07 08:34:46;;;;;;;1999.90;999.90;;;;;;;3.46;100.00;101230.72;1707906;82;21111;-63
2021/01/07 08:37:21;;;;;;;1999.90;999.90;;;;;;;3.49;100.00;101234.34;1711720;82;21568;-70
2021/01/07 08:39:48;;;;;;;1999.90;999.90;;;;;;;3.52;100.00;101233.30;1706628;82;22305;-64
2021/01/07 08:42:16;;;;;;;1999.90;999.90;;;;;;;3.55;100.00;101234.19;1711763;82;21178;-74
2021/01/07 08:44:45;;;;;;;1999.90;999.90;;;;;;;3.59;100.00;101228.22;1742286;81;21091;-71
2021/01/07 08:47:21;;;;;;;1999.90;999.90;;;;;;;3.62;100.00;101227.73;1741944;81;21131;-70
2021/01/07 08:50:10;;;;;;;1999.90;999.90;;;;;;;3.66;100.00;101215.20;1745369;81;21074;-70
2021/01/07 08:52:54;;;;;;;1999.90;999.90;;;;;;;3.69;100.00;101203.77;1741364;81;21441;-68
2021/01/07 08:55:49;;;;;;;1999.90;999.90;;;;;;;3.70;100.00;101193.94;1746411;80;21142;-70
2021/01/07 08:58:25;;;;;;;1999.90;999.90;;;;;;;3.71;100.00;101191.48;1739511;81;21773;-72
2021/01/07 09:00:53;;;;;;;1999.90;999.90;;;;;;;3.75;100.00;101186.34;1739819;81;21083;-73
2021/01/07 09:03:21;;;;;;;1999.90;999.90;;;;;;;3.78;100.00;101183.11;1741204;81;21146;-74
2021/01/07 09:05:53;;;;;;;1999.90;999.90;;;;;;;3.81;100.00;101173.86;1774609;80;22118;-65
2021/01/07 09:08:23;;;;;;;1999.90;999.90;;;;;;;3.86;100.00;101175.86;1777281;79;21130;-70
2021/01/07 09:10:51;;;;;;;1999.90;999.90;;;;;;;3.90;100.00;101182.49;1773184;80;21627;-72
2021/01/07 09:13:22;;;;;;;1999.90;999.90;;;;;;;3.95;100.00;101170.79;1741849;82;21189;-73
2021/01/07 09:15:50;;;;;;;1999.90;999.90;;;;;;;3.97;100.00;101170.83;1742675;81;21094;-75
2021/01/07 09:18:19;;;;;;;1999.90;999.90;;;;;;;4.01;100.00;101174.73;1737478;81;21287;-75
2021/01/07 09:20:47;;;;;;;1999.90;999.90;;;;;;;4.06;100.00;101172.06;1738859;82;21533;-75
2021/01/07 09:23:16;;;;;;;1999.90;999.90;;;;;;;4.12;100.00;101171.61;1711684;83;21545;-67
2021/01/07 09:25:44;;;;;;;1999.90;999.90;;;;;;;4.17;100.00;101160.73;1736865;81;21110;-72
2021/01/07 09:28:13;;;;;;;1999.90;999.90;;;;;;;4.21;100.00;101162.71;1737583;82;21172;-73
2021/01/07 09:30:41;;;;;;;1999.90;999.90;;;;;;;4.25;100.00;101166.31;1740982;81;21236;-72
2021/01/07 09:33:08;;;;;;;1999.90;999.90;;;;;;;4.26;100.00;101157.02;1739603;81;21103;-70
2021/01/07 09:35:37;;;;;;;1999.90;999.90;;;;;;;4.27;100.00;101155.94;1741492;81;21630;-65
2021/01/07 09:38:05;;;;;;;1999.90;999.90;;;;;;;4.31;100.00;101154.34;1737282;82;21140;-72
2021/01/07 09:40:33;;;;;;;1999.90;999.90;;;;;;;4.31;100.00;101155.72;1715235;82;21122;-68
2021/01/07 09:43:01;;;;;;;1999.90;999.90;;;;;;;4.34;100.00;101155.21;1721006;83;21462;-69
2021/01/07 09:45:29;;;;;;;1999.90;999.90;;;;;;;4.37;100.00;101154.17;1718098;82;21178;-69
2021/01/07 09:47:57;;;;;;;1999.90;999.90;;;;;;;4.41;100.00;101156.69;1716503;83;21119;-69
2021/01/07 09:50:25;;;;;;;1999.90;999.90;;;;;;;4.44;100.00;101150.70;1721777;82;21154;-69
2021/01/07 09:52:53;;;;;;;1999.90;999.90;;;;;;;4.45;100.00;101146.88;1738955;81;21122;-66
2021/01/07 09:55:21;;;;;;;1999.90;999.90;;;;;;;4.45;100.00;101150.16;1738271;81;21398;-70
2021/01/07 09:57:51;;;;;;;1999.90;999.90;;;;;;;4.44;100.00;101140.28;1709007;82;21150;-66
2021/01/07 10:00:19;;;;;;;1999.90;999.90;;;;;;;4.44;100.00;101134.25;1737056;81;21427;-66
2021/01/07 10:02:47;;;;;;;1999.90;999.90;;;;;;;4.45;100.00;101133.72;1711946;82;21103;-65
2021/01/07 10:05:15;;;;;;;1999.90;999.90;;;;;;;4.49;100.00;101130.21;1738771;81;21106;-67
2021/01/07 10:07:43;;;;;;;1999.90;999.90;;;;;;;4.53;100.00;101131.36;1740075;81;21347;-69
2021/01/07 10:10:12;;;;;;;1999.90;999.90;;;;;;;4.57;100.00;101125.37;1722831;82;21139;-70
2021/01/07 10:12:40;;;;;;;1999.90;999.90;;;;;;;4.59;100.00;101123.20;1722326;83;21115;-68
2021/01/07 10:15:09;;;;;;;1999.90;999.90;;;;;;;4.62;100.00;101119.95;1720005;82;21104;-70
2021/01/07 10:17:37;;;;;;;1999.90;999.90;;;;;;;4.65;100.00;101116.70;1722193;82;21648;-69
2021/01/07 10:20:08;;;;;;;1999.90;999.90;;;;;;;4.66;100.00;101122.47;1720759;82;21309;-63
2021/01/07 10:22:37;;;;;;;1999.90;999.90;;;;;;;4.72;100.00;101122.81;1719214;82;21115;-66
2021/01/07 10:25:07;;;;;;;1999.90;999.90;;;;;;;4.77;100.00;101122.33;1738530;81;21536;-68
2021/01/07 10:27:35;;;;;;;1999.90;999.90;;;;;;;4.81;100.00;101114.42;1737494;82;21126;-68
2021/01/07 10:30:04;;;;;;;1999.90;999.90;;;;;;;4.84;100.00;101102.94;1738239;81;21131;-71
2021/01/07 10:32:32;;;;;;;1999.90;999.90;;;;;;;4.87;100.00;101103.80;1735946;81;21168;-71
2021/01/07 10:35:00;;;;;;;1999.90;999.90;;;;;;;4.89;100.00;101098.88;1730986;81;21852;-78
2021/01/07 10:37:28;;;;;;;1999.90;999.90;;;;;;;4.88;100.00;101090.91;1741310;80;21090;-74
2021/01/07 10:39:56;;;;;;;1999.90;999.90;;;;;;;4.88;100.00;101090.91;1743738;81;20949;-69
2021/01/07 10:42:25;;;;;;;1999.90;999.90;;;;;;;4.87;100.00;101079.11;1739436;81;21525;-64
2021/01/07 10:44:53;;;;;;;1999.90;999.90;;;;;;;4.86;100.00;101077.45;1739265;81;21391;-66
2021/01/07 10:47:21;;;;;;;1999.90;999.90;;;;;;;4.88;100.00;101071.17;1738557;81;21111;-65
2021/01/07 10:49:49;;;;;;;1999.90;999.90;;;;;;;4.89;100.00;101067.34;1743322;81;21011;-75
2021/01/07 10:52:34;;;;;;;1999.90;999.90;;;;;;;4.92;100.00;101062.70;1740598;81;21110;-69
2021/01/07 10:55:29;;;;;;;1999.90;999.90;;;;;;;4.96;100.00;101053.41;1709911;82;21437;-78
2021/01/07 10:58:37;;;;;;;1999.90;999.90;;;;;;;5.01;100.00;101047.98;1740707;81;22242;-67
2021/01/07 11:01:16;;;;;;;1999.90;999.90;;;;;;;5.03;100.00;101043.06;1741039;81;20985;-70